sensor_id;sensor_type;location;lat;lon;timestamp;temperature;humidity
11961;DHT22;6040;49.358;11.140;2024-01-11T00:02:11;-6.50;99.90
11961;DHT22;6040;49.358;11.140;2024-01-11T00:04:38;-6.50;99.90
11961;DHT22;6040;49.358;11.140;2024-01-11T00:07:05;-6.50;99.90
11961;DHT22;6040;49.358;11.140;2024-01-11T00:09:32;-6.60;99.90
11961;DHT22;6040;49.358;11.140;2024-01-11T00:11:59;-6.60;99.90
11961;DHT22;6040;49.358;11.140;2024-01-11T00:14:26;-6.60;99.90
11961;DHT22;6040;49.358;11.140;2024-01-11T00:16:52;-6.60;99.90
11961;DHT22;6040;49.358;11.140;2024-01-11T00:19:21;-6.60;99.90
11961;DHT22;6040;49.358;11.140;2024-01-11T00:21:47;-6.70;99.90
11961;DHT22;6040;49.358;11.140;2024-01-11T00:24:14;-6.60;99.90
11961;DHT22;6040;49.358;11.140;2024-01-11T00:26:41;-6.70;99.90
11961;DHT22;6040;49.358;11.140;2024-01-11T00:29:08;-6.70;99.90
11961;DHT22;6040;49.358;11.140;2024-01-11T00:31:35;-6.70;99.90
11961;DHT22;6040;49.358;11.140;2024-01-11T00:34:03;-6.70;99.90
11961;DHT22;6040;49.358;11.140;2024-01-11T00:36:31;-6.80;99.90
11961;DHT22;6040;49.358;11.140;2024-01-11T00:38:58;-6.80;99.90
11961;DHT22;6040;49.358;11.140;2024-01-11T00:41:25;-6.80;99.90
11961;DHT22;6040;49.358;11.140;2024-01-11T00:43:52;-6.90;99.90
11961;DHT22;6040;49.358;11.140;2024-01-11T00:46:19;-6.90;99.90
11961;DHT22;6040;49.358;11.140;2024-01-11T00:48:45;-6.90;99.90
11961;DHT22;6040;49.358;11.140;2024-01-11T00:51:12;-7.00;99.90
11961;DHT22;6040;49.358;11.140;2024-01-11T00:53:40;-7.10;99.90
11961;DHT22;6040;49.358;11.140;2024-01-11T00:56:15;-7.10;99.90
11961;DHT22;6040;49.358;11.140;2024-01-11T00:58:42;-7.00;99.90
11961;DHT22;6040;49.358;11.140;2024-01-11T01:01:09;-7.00;99.90
11961;DHT22;6040;49.358;11.140;2024-01-11T01:03:36;-7.00;99.90
11961;DHT22;6040;49.358;11.140;2024-01-11T01:06:03;-7.10;99.90
11961;DHT22;6040;49.358;11.140;2024-01-11T01:08:30;-6.40;99.90
11961;DHT22;6040;49.358;11.140;2024-01-11T01:10:58;-7.00;99.90
11961;DHT22;6040;49.358;11.140;2024-01-11T01:13:25;-7.00;99.90
11961;DHT22;6040;49.358;11.140;2024-01-11T01:15:52;-7.00;99.90
11961;DHT22;6040;49.358;11.140;2024-01-11T01:18:19;-7.10;99.90
11961;DHT22;6040;49.358;11.140;2024-01-11T01:20:46;-7.10;99.90
11961;DHT22;6040;49.358;11.140;2024-01-11T01:23:13;-7.10;99.90
11961;DHT22;6040;49.358;11.140;2024-01-11T01:25:40;-7.10;99.90
11961;DHT22;6040;49.358;11.140;2024-01-11T01:28:08;-7.10;99.90
11961;DHT22;6040;49.358;11.140;2024-01-11T01:30:35;-7.10;99.90
11961;DHT22;6040;49.358;11.140;2024-01-11T01:33:02;-7.20;99.90
11961;DHT22;6040;49.358;11.140;2024-01-11T01:35:29;-7.20;99.90
11961;DHT22;6040;49.358;11.140;2024-01-11T01:37:56;-7.20;99.90
11961;DHT22;6040;49.358;11.140;2024-01-11T01:40:23;-7.20;99.90
11961;DHT22;6040;49.358;11.140;2024-01-11T01:42:50;-7.20;99.90
11961;DHT22;6040;49.358;11.140;2024-01-11T01:45:18;-7.30;99.90
11961;DHT22;6040;49.358;11.140;2024-01-11T01:47:45;-7.30;99.90
11961;DHT22;6040;49.358;11.140;2024-01-11T01:50:12;-7.30;99.90
11961;DHT22;6040;49.358;11.140;2024-01-11T01:52:40;-7.40;99.90
11961;DHT22;6040;49.358;11.140;2024-01-11T01:55:10;-7.40;99.90
11961;DHT22;6040;49.358;11.140;2024-01-11T01:57:39;-7.40;99.90
11961;DHT22;6040;49.358;11.140;2024-01-11T02:00:09;-7.50;99.90
11961;DHT22;6040;49.358;11.140;2024-01-11T02:02:40;-7.60;99.90
11961;DHT22;6040;49.358;11.140;2024-01-11T02:05:08;-7.60;99.90
11961;DHT22;6040;49.358;11.140;2024-01-11T02:07:36;-7.50;99.90
11961;DHT22;6040;49.358;11.140;2024-01-11T02:10:03;-7.50;99.90
11961;DHT22;6040;49.358;11.140;2024-01-11T02:12:30;-7.50;99.90
11961;DHT22;6040;49.358;11.140;2024-01-11T02:14:57;-7.50;99.90
11961;DHT22;6040;49.358;11.140;2024-01-11T02:17:24;-7.50;99.90
11961;DHT22;6040;49.358;11.140;2024-01-11T02:19:53;-7.40;99.90
11961;DHT22;6040;49.358;11.140;2024-01-11T02:22:22;-7.50;99.90
11961;DHT22;6040;49.358;11.140;2024-01-11T02:24:51;-7.00;99.90
11961;DHT22;6040;49.358;11.140;2024-01-11T02:27:18;-7.50;99.90
11961;DHT22;6040;49.358;11.140;2024-01-11T02:29:45;-7.50;99.90
11961;DHT22;6040;49.358;11.140;2024-01-11T02:32:12;-7.60;99.90
11961;DHT22;6040;49.358;11.140;2024-01-11T02:34:39;-7.60;99.90
11961;DHT22;6040;49.358;11.140;2024-01-11T02:37:06;-7.60;99.90
11961;DHT22;6040;49.358;11.140;2024-01-11T02:39:34;-7.60;99.90
11961;DHT22;6040;49.358;11.140;2024-01-11T02:42:02;-7.70;99.90
11961;DHT22;6040;49.358;11.140;2024-01-11T02:44:29;-7.70;99.90
11961;DHT22;6040;49.358;11.140;2024-01-11T02:46:56;-7.70;99.90
11961;DHT22;6040;49.358;11.140;2024-01-11T02:49:23;-7.70;99.90
11961;DHT22;6040;49.358;11.140;2024-01-11T02:51:49;-7.70;99.90
11961;DHT22;6040;49.358;11.140;2024-01-11T02:54:16;-7.80;99.90
11961;DHT22;6040;49.358;11.140;2024-01-11T02:56:43;-7.70;99.90
11961;DHT22;6040;49.358;11.140;2024-01-11T02:59:11;-7.70;99.90
11961;DHT22;6040;49.358;11.140;2024-01-11T03:01:38;-7.70;99.90
11961;DHT22;6040;49.358;11.140;2024-01-11T03:04:05;-7.70;99.90
11961;DHT22;6040;49.358;11.140;2024-01-11T03:06:32;-7.80;99.90
11961;DHT22;6040;49.358;11.140;2024-01-11T03:08:59;-7.80;99.90
11961;DHT22;6040;49.358;11.140;2024-01-11T03:11:25;-7.80;99.90
11961;DHT22;6040;49.358;11.140;2024-01-11T03:13:52;-7.70;99.90
11961;DHT22;6040;49.358;11.140;2024-01-11T03:16:20;-7.70;99.90
11961;DHT22;6040;49.358;11.140;2024-01-11T03:18:47;-7.70;99.90
11961;DHT22;6040;49.358;11.140;2024-01-11T03:21:14;-7.80;99.90
11961;DHT22;6040;49.358;11.140;2024-01-11T03:23:41;-7.80;99.90
11961;DHT22;6040;49.358;11.140;2024-01-11T03:26:13;-7.80;99.90
11961;DHT22;6040;49.358;11.140;2024-01-11T03:28:40;-7.80;99.90
11961;DHT22;6040;49.358;11.140;2024-01-11T03:31:07;-7.80;99.90
11961;DHT22;6040;49.358;11.140;2024-01-11T03:33:36;-7.90;99.90
11961;DHT22;6040;49.358;11.140;2024-01-11T03:36:07;-7.80;99.90
11961;DHT22;6040;49.358;11.140;2024-01-11T03:38:34;-7.90;99.90
11961;DHT22;6040;49.358;11.140;2024-01-11T03:41:01;-8.00;99.90
11961;DHT22;6040;49.358;11.140;2024-01-11T03:43:28;-8.10;99.90
11961;DHT22;6040;49.358;11.140;2024-01-11T03:45:55;-8.10;99.90
11961;DHT22;6040;49.358;11.140;2024-01-11T03:48:22;-8.20;99.90
11961;DHT22;6040;49.358;11.140;2024-01-11T03:50:50;-8.20;99.90
11961;DHT22;6040;49.358;11.140;2024-01-11T03:53:17;-8.20;99.90
11961;DHT22;6040;49.358;11.140;2024-01-11T03:55:44;-8.10;99.90
11961;DHT22;6040;49.358;11.140;2024-01-11T03:58:11;-8.10;99.90
11961;DHT22;6040;49.358;11.140;2024-01-11T04:00:37;-8.10;99.90
11961;DHT22;6040;49.358;11.140;2024-01-11T04:03:06;-8.10;99.90
11961;DHT22;6040;49.358;11.140;2024-01-11T04:05:33;-8.10;99.90
11961;DHT22;6040;49.358;11.140;2024-01-11T04:08:04;-8.20;99.90
11961;DHT22;6040;49.358;11.140;2024-01-11T04:10:30;-8.10;99.90
11961;DHT22;6040;49.358;11.140;2024-01-11T04:12:57;-8.20;99.90
11961;DHT22;6040;49.358;11.140;2024-01-11T04:15:24;-8.30;99.90
11961;DHT22;6040;49.358;11.140;2024-01-11T04:17:51;-8.40;99.90
11961;DHT22;6040;49.358;11.140;2024-01-11T04:20:18;-8.40;99.90
11961;DHT22;6040;49.358;11.140;2024-01-11T04:22:45;-8.30;99.90
11961;DHT22;6040;49.358;11.140;2024-01-11T04:25:13;-8.30;99.90
11961;DHT22;6040;49.358;11.140;2024-01-11T04:27:40;-8.30;99.90
11961;DHT22;6040;49.358;11.140;2024-01-11T04:30:07;-8.40;99.90
11961;DHT22;6040;49.358;11.140;2024-01-11T04:32:34;-8.40;99.90
11961;DHT22;6040;49.358;11.140;2024-01-11T04:35:01;-8.40;99.90
11961;DHT22;6040;49.358;11.140;2024-01-11T04:37:28;-8.30;99.90
11961;DHT22;6040;49.358;11.140;2024-01-11T04:39:54;-8.30;99.90
11961;DHT22;6040;49.358;11.140;2024-01-11T04:42:26;-8.30;99.90
11961;DHT22;6040;49.358;11.140;2024-01-11T04:44:53;-8.30;99.90
11961;DHT22;6040;49.358;11.140;2024-01-11T04:47:20;-8.30;99.90
11961;DHT22;6040;49.358;11.140;2024-01-11T04:49:47;-8.40;99.90
11961;DHT22;6040;49.358;11.140;2024-01-11T04:52:14;-8.40;99.90
11961;DHT22;6040;49.358;11.140;2024-01-11T04:54:41;-8.50;99.90
11961;DHT22;6040;49.358;11.140;2024-01-11T04:57:08;-8.60;99.90
11961;DHT22;6040;49.358;11.140;2024-01-11T04:59:36;-8.50;99.90
11961;DHT22;6040;49.358;11.140;2024-01-11T05:02:03;-8.50;99.90
11961;DHT22;6040;49.358;11.140;2024-01-11T05:04:30;-8.60;99.90
11961;DHT22;6040;49.358;11.140;2024-01-11T05:06:56;-8.60;99.90
11961;DHT22;6040;49.358;11.140;2024-01-11T05:09:23;-8.60;99.90
11961;DHT22;6040;49.358;11.140;2024-01-11T05:11:50;-8.60;99.90
11961;DHT22;6040;49.358;11.140;2024-01-11T05:14:17;-8.50;99.90
11961;DHT22;6040;49.358;11.140;2024-01-11T05:16:45;-8.50;99.90
11961;DHT22;6040;49.358;11.140;2024-01-11T05:19:12;-8.50;99.90
11961;DHT22;6040;49.358;11.140;2024-01-11T05:21:39;-8.50;99.90
11961;DHT22;6040;49.358;11.140;2024-01-11T05:24:05;-8.50;99.90
11961;DHT22;6040;49.358;11.140;2024-01-11T05:26:32;-8.20;99.90
11961;DHT22;6040;49.358;11.140;2024-01-11T05:28:59;-8.70;99.90
11961;DHT22;6040;49.358;11.140;2024-01-11T05:31:26;-8.70;99.90
11961;DHT22;6040;49.358;11.140;2024-01-11T05:33:54;-8.70;99.90
11961;DHT22;6040;49.358;11.140;2024-01-11T05:36:21;-8.60;99.90
11961;DHT22;6040;49.358;11.140;2024-01-11T05:38:48;-8.60;99.90
11961;DHT22;6040;49.358;11.140;2024-01-11T05:41:15;-8.60;99.90
11961;DHT22;6040;49.358;11.140;2024-01-11T05:43:41;-8.60;99.90
11961;DHT22;6040;49.358;11.140;2024-01-11T05:46:09;-8.60;99.90
11961;DHT22;6040;49.358;11.140;2024-01-11T05:48:36;-8.60;99.90
11961;DHT22;6040;49.358;11.140;2024-01-11T05:51:05;-8.60;99.90
11961;DHT22;6040;49.358;11.140;2024-01-11T05:53:31;-8.60;99.90
11961;DHT22;6040;49.358;11.140;2024-01-11T05:56:00;-8.60;99.90
11961;DHT22;6040;49.358;11.140;2024-01-11T05:58:28;-8.60;99.90
11961;DHT22;6040;49.358;11.140;2024-01-11T06:00:55;-8.60;99.90
11961;DHT22;6040;49.358;11.140;2024-01-11T06:03:22;-8.70;99.90
11961;DHT22;6040;49.358;11.140;2024-01-11T06:05:49;-8.70;99.90
11961;DHT22;6040;49.358;11.140;2024-01-11T06:08:17;-8.80;99.90
11961;DHT22;6040;49.358;11.140;2024-01-11T06:10:44;-8.80;99.90
11961;DHT22;6040;49.358;11.140;2024-01-11T06:13:10;-8.80;99.90
11961;DHT22;6040;49.358;11.140;2024-01-11T06:15:36;-8.90;99.90
11961;DHT22;6040;49.358;11.140;2024-01-11T06:18:04;-8.80;99.90
11961;DHT22;6040;49.358;11.140;2024-01-11T06:20:31;-8.80;99.90
11961;DHT22;6040;49.358;11.140;2024-01-11T06:22:58;-8.90;99.90
11961;DHT22;6040;49.358;11.140;2024-01-11T06:25:26;-8.80;99.90
11961;DHT22;6040;49.358;11.140;2024-01-11T06:27:53;-8.80;99.90
11961;DHT22;6040;49.358;11.140;2024-01-11T06:30:20;-8.90;99.90
11961;DHT22;6040;49.358;11.140;2024-01-11T06:32:47;-8.90;99.90
11961;DHT22;6040;49.358;11.140;2024-01-11T06:35:14;-8.90;99.90
11961;DHT22;6040;49.358;11.140;2024-01-11T06:37:40;-8.80;99.90
11961;DHT22;6040;49.358;11.140;2024-01-11T06:40:07;-8.90;99.90
11961;DHT22;6040;49.358;11.140;2024-01-11T06:42:36;-8.80;99.90
11961;DHT22;6040;49.358;11.140;2024-01-11T06:45:03;-8.80;99.90
11961;DHT22;6040;49.358;11.140;2024-01-11T06:47:30;-8.80;99.90
11961;DHT22;6040;49.358;11.140;2024-01-11T06:49:57;-8.80;99.90
11961;DHT22;6040;49.358;11.140;2024-01-11T06:52:22;-8.70;99.90
11961;DHT22;6040;49.358;11.140;2024-01-11T06:54:49;-8.80;99.90
11961;DHT22;6040;49.358;11.140;2024-01-11T06:57:16;-8.80;99.90
11961;DHT22;6040;49.358;11.140;2024-01-11T06:59:44;-8.80;99.90
11961;DHT22;6040;49.358;11.140;2024-01-11T07:02:12;-8.70;99.90
11961;DHT22;6040;49.358;11.140;2024-01-11T07:04:43;-8.80;99.90
11961;DHT22;6040;49.358;11.140;2024-01-11T07:07:10;-8.90;99.90
11961;DHT22;6040;49.358;11.140;2024-01-11T07:09:37;-8.80;99.90
11961;DHT22;6040;49.358;11.140;2024-01-11T07:12:05;-8.80;99.90
11961;DHT22;6040;49.358;11.140;2024-01-11T07:14:33;-8.90;99.90
11961;DHT22;6040;49.358;11.140;2024-01-11T07:17:01;-8.80;99.90
11961;DHT22;6040;49.358;11.140;2024-01-11T07:19:29;-8.80;99.90
11961;DHT22;6040;49.358;11.140;2024-01-11T07:21:56;-8.80;99.90
11961;DHT22;6040;49.358;11.140;2024-01-11T07:24:23;-8.90;99.90
11961;DHT22;6040;49.358;11.140;2024-01-11T07:26:50;-8.90;99.90
11961;DHT22;6040;49.358;11.140;2024-01-11T07:29:17;-9.00;99.90
11961;DHT22;6040;49.358;11.140;2024-01-11T07:31:44;-9.00;99.90
11961;DHT22;6040;49.358;11.140;2024-01-11T07:34:12;-9.10;99.90
11961;DHT22;6040;49.358;11.140;2024-01-11T07:36:39;-9.00;99.90
11961;DHT22;6040;49.358;11.140;2024-01-11T07:39:06;-8.90;99.90
11961;DHT22;6040;49.358;11.140;2024-01-11T07:41:32;-8.90;99.90
11961;DHT22;6040;49.358;11.140;2024-01-11T07:43:59;-8.90;99.90
11961;DHT22;6040;49.358;11.140;2024-01-11T07:46:26;-8.70;99.90
11961;DHT22;6040;49.358;11.140;2024-01-11T07:48:53;-8.80;99.90
11961;DHT22;6040;49.358;11.140;2024-01-11T07:51:21;-8.60;99.90
11961;DHT22;6040;49.358;11.140;2024-01-11T07:53:48;-8.50;99.90
11961;DHT22;6040;49.358;11.140;2024-01-11T07:56:15;-8.50;99.90
11961;DHT22;6040;49.358;11.140;2024-01-11T07:58:42;-8.60;99.90
11961;DHT22;6040;49.358;11.140;2024-01-11T08:01:09;-8.50;99.90
11961;DHT22;6040;49.358;11.140;2024-01-11T08:03:38;-8.40;99.90
11961;DHT22;6040;49.358;11.140;2024-01-11T08:06:07;-8.40;99.90
11961;DHT22;6040;49.358;11.140;2024-01-11T08:08:35;-8.30;99.90
11961;DHT22;6040;49.358;11.140;2024-01-11T08:11:07;-8.30;99.90
11961;DHT22;6040;49.358;11.140;2024-01-11T08:13:34;-8.20;99.90
11961;DHT22;6040;49.358;11.140;2024-01-11T08:16:03;-8.20;99.90
11961;DHT22;6040;49.358;11.140;2024-01-11T08:18:35;-8.10;99.90
11961;DHT22;6040;49.358;11.140;2024-01-11T08:21:01;-7.90;99.90
11961;DHT22;6040;49.358;11.140;2024-01-11T08:23:31;-7.10;99.90
11961;DHT22;6040;49.358;11.140;2024-01-11T08:26:00;-6.50;99.90
11961;DHT22;6040;49.358;11.140;2024-01-11T08:28:26;-5.40;99.90
11961;DHT22;6040;49.358;11.140;2024-01-11T08:30:53;-4.70;99.90
11961;DHT22;6040;49.358;11.140;2024-01-11T08:33:21;-4.00;99.90
11961;DHT22;6040;49.358;11.140;2024-01-11T08:35:48;-3.20;99.90
11961;DHT22;6040;49.358;11.140;2024-01-11T08:38:15;-2.80;99.90
11961;DHT22;6040;49.358;11.140;2024-01-11T08:40:42;-2.60;99.90
11961;DHT22;6040;49.358;11.140;2024-01-11T08:43:11;-2.50;99.90
11961;DHT22;6040;49.358;11.140;2024-01-11T08:45:38;-2.60;99.90
11961;DHT22;6040;49.358;11.140;2024-01-11T08:48:05;-2.80;99.90
11961;DHT22;6040;49.358;11.140;2024-01-11T08:50:32;-3.40;99.90
11961;DHT22;6040;49.358;11.140;2024-01-11T08:52:59;-3.70;99.90
11961;DHT22;6040;49.358;11.140;2024-01-11T08:55:26;-3.70;99.90
11961;DHT22;6040;49.358;11.140;2024-01-11T08:57:53;-3.70;99.90
11961;DHT22;6040;49.358;11.140;2024-01-11T09:00:22;-3.70;99.90
11961;DHT22;6040;49.358;11.140;2024-01-11T09:02:48;-4.00;99.90
11961;DHT22;6040;49.358;11.140;2024-01-11T09:05:15;-4.20;99.90
11961;DHT22;6040;49.358;11.140;2024-01-11T09:07:42;-4.20;99.90
11961;DHT22;6040;49.358;11.140;2024-01-11T09:10:09;-4.40;99.90
11961;DHT22;6040;49.358;11.140;2024-01-11T09:12:38;-4.50;99.90
11961;DHT22;6040;49.358;11.140;2024-01-11T09:15:05;-4.60;99.90
11961;DHT22;6040;49.358;11.140;2024-01-11T09:17:33;-4.60;99.90
11961;DHT22;6040;49.358;11.140;2024-01-11T09:20:00;-4.60;99.90
11961;DHT22;6040;49.358;11.140;2024-01-11T09:22:27;-4.80;99.90
11961;DHT22;6040;49.358;11.140;2024-01-11T09:24:54;-4.80;99.90
11961;DHT22;6040;49.358;11.140;2024-01-11T09:27:21;-4.70;99.90
11961;DHT22;6040;49.358;11.140;2024-01-11T09:29:48;-4.40;99.90
11961;DHT22;6040;49.358;11.140;2024-01-11T09:32:15;-3.70;99.90
11961;DHT22;6040;49.358;11.140;2024-01-11T09:34:43;-3.10;99.90
11961;DHT22;6040;49.358;11.140;2024-01-11T09:37:11;-2.50;99.90
11961;DHT22;6040;49.358;11.140;2024-01-11T09:39:38;-2.30;99.90
11961;DHT22;6040;49.358;11.140;2024-01-11T09:42:07;-2.10;99.90
11961;DHT22;6040;49.358;11.140;2024-01-11T09:44:36;-2.10;99.90
11961;DHT22;6040;49.358;11.140;2024-01-11T09:47:04;-2.00;99.90
11961;DHT22;6040;49.358;11.140;2024-01-11T09:49:33;-1.50;99.90
11961;DHT22;6040;49.358;11.140;2024-01-11T09:52:05;-0.90;99.90
11961;DHT22;6040;49.358;11.140;2024-01-11T09:54:34;-0.90;99.90
11961;DHT22;6040;49.358;11.140;2024-01-11T09:57:02;-0.30;99.90
11961;DHT22;6040;49.358;11.140;2024-01-11T09:59:30;0.00;99.90
11961;DHT22;6040;49.358;11.140;2024-01-11T10:01:58;1.80;99.90
11961;DHT22;6040;49.358;11.140;2024-01-11T10:04:26;0.70;99.90
11961;DHT22;6040;49.358;11.140;2024-01-11T10:06:54;0.80;99.90
11961;DHT22;6040;49.358;11.140;2024-01-11T10:09:23;1.20;99.90
11961;DHT22;6040;49.358;11.140;2024-01-11T10:11:50;2.00;99.90
11961;DHT22;6040;49.358;11.140;2024-01-11T10:14:18;1.50;99.90
11961;DHT22;6040;49.358;11.140;2024-01-11T10:16:47;1.50;99.90
11961;DHT22;6040;49.358;11.140;2024-01-11T10:19:14;1.50;99.90
11961;DHT22;6040;49.358;11.140;2024-01-11T10:21:42;1.20;99.90
11961;DHT22;6040;49.358;11.140;2024-01-11T10:24:08;1.20;99.90
11961;DHT22;6040;49.358;11.140;2024-01-11T10:26:37;1.30;99.90
11961;DHT22;6040;49.358;11.140;2024-01-11T10:29:06;1.20;99.90
11961;DHT22;6040;49.358;11.140;2024-01-11T10:31:36;3.10;99.90
11961;DHT22;6040;49.358;11.140;2024-01-11T10:34:04;1.10;99.90
11961;DHT22;6040;49.358;11.140;2024-01-11T10:36:32;1.10;99.90
11961;DHT22;6040;49.358;11.140;2024-01-11T10:39:02;3.00;99.90
11961;DHT22;6040;49.358;11.140;2024-01-11T10:41:32;1.50;99.90
11961;DHT22;6040;49.358;11.140;2024-01-11T10:44:03;2.40;99.90
11961;DHT22;6040;49.358;11.140;2024-01-11T10:46:33;1.90;99.90
11961;DHT22;6040;49.358;11.140;2024-01-11T10:49:04;1.90;99.90
11961;DHT22;6040;49.358;11.140;2024-01-11T10:51:32;1.60;99.90
11961;DHT22;6040;49.358;11.140;2024-01-11T10:53:59;1.40;99.90
11961;DHT22;6040;49.358;11.140;2024-01-11T10:56:27;1.40;99.90
11961;DHT22;6040;49.358;11.140;2024-01-11T10:58:55;1.60;99.90
11961;DHT22;6040;49.358;11.140;2024-01-11T11:01:25;1.80;99.90
11961;DHT22;6040;49.358;11.140;2024-01-11T11:03:52;1.80;99.90
11961;DHT22;6040;49.358;11.140;2024-01-11T11:06:21;2.00;99.90
11961;DHT22;6040;49.358;11.140;2024-01-11T11:08:49;2.50;99.90
11961;DHT22;6040;49.358;11.140;2024-01-11T11:11:17;2.10;99.60
11961;DHT22;6040;49.358;11.140;2024-01-11T11:13:47;2.10;99.90
11961;DHT22;6040;49.358;11.140;2024-01-11T11:16:15;2.10;99.90
11961;DHT22;6040;49.358;11.140;2024-01-11T11:18:43;2.20;99.90
11961;DHT22;6040;49.358;11.140;2024-01-11T11:21:10;2.40;99.90
11961;DHT22;6040;49.358;11.140;2024-01-11T11:23:37;2.40;99.90
11961;DHT22;6040;49.358;11.140;2024-01-11T11:26:06;2.90;99.90
11961;DHT22;6040;49.358;11.140;2024-01-11T11:28:33;2.60;99.90
11961;DHT22;6040;49.358;11.140;2024-01-11T11:31:03;3.30;99.70
11961;DHT22;6040;49.358;11.140;2024-01-11T11:33:30;3.00;98.80
11961;DHT22;6040;49.358;11.140;2024-01-11T11:35:59;4.80;99.90
11961;DHT22;6040;49.358;11.140;2024-01-11T11:38:27;3.30;99.90
11961;DHT22;6040;49.358;11.140;2024-01-11T11:40:56;3.20;99.20
11961;DHT22;6040;49.358;11.140;2024-01-11T11:43:26;3.10;99.40
11961;DHT22;6040;49.358;11.140;2024-01-11T11:45:53;3.20;99.50
11961;DHT22;6040;49.358;11.140;2024-01-11T11:48:49;3.10;99.00
11961;DHT22;6040;49.358;11.140;2024-01-11T11:51:19;3.20;98.90
11961;DHT22;6040;49.358;11.140;2024-01-11T11:53:47;3.30;98.60
11961;DHT22;6040;49.358;11.140;2024-01-11T11:56:17;3.40;98.50
11961;DHT22;6040;49.358;11.140;2024-01-11T11:58:45;3.80;98.50
11961;DHT22;6040;49.358;11.140;2024-01-11T12:01:13;5.20;98.80
11961;DHT22;6040;49.358;11.140;2024-01-11T12:03:41;3.50;98.20
11961;DHT22;6040;49.358;11.140;2024-01-11T12:06:12;3.40;98.30
11961;DHT22;6040;49.358;11.140;2024-01-11T12:08:42;3.30;98.40
11961;DHT22;6040;49.358;11.140;2024-01-11T12:11:12;3.50;98.50
11961;DHT22;6040;49.358;11.140;2024-01-11T12:13:40;3.40;98.20
11961;DHT22;6040;49.358;11.140;2024-01-11T12:16:09;3.40;98.30
11961;DHT22;6040;49.358;11.140;2024-01-11T12:18:36;3.80;97.50
11961;DHT22;6040;49.358;11.140;2024-01-11T12:21:03;5.20;97.20
11961;DHT22;6040;49.358;11.140;2024-01-11T12:23:30;3.60;97.50
11961;DHT22;6040;49.358;11.140;2024-01-11T12:26:01;4.50;98.10
11961;DHT22;6040;49.358;11.140;2024-01-11T12:28:28;3.60;97.70
11961;DHT22;6040;49.358;11.140;2024-01-11T12:30:55;3.60;97.60
11961;DHT22;6040;49.358;11.140;2024-01-11T12:33:22;3.50;97.30
11961;DHT22;6040;49.358;11.140;2024-01-11T12:35:50;3.60;96.70
11961;DHT22;6040;49.358;11.140;2024-01-11T12:38:17;3.60;96.70
11961;DHT22;6040;49.358;11.140;2024-01-11T12:40:46;4.10;96.70
11961;DHT22;6040;49.358;11.140;2024-01-11T12:43:15;3.90;97.10
11961;DHT22;6040;49.358;11.140;2024-01-11T12:45:43;3.90;97.50
11961;DHT22;6040;49.358;11.140;2024-01-11T12:48:09;4.90;97.70
11961;DHT22;6040;49.358;11.140;2024-01-11T12:50:39;6.00;97.80
11961;DHT22;6040;49.358;11.140;2024-01-11T12:53:08;4.40;96.90
11961;DHT22;6040;49.358;11.140;2024-01-11T12:55:34;4.50;95.60
11961;DHT22;6040;49.358;11.140;2024-01-11T12:58:08;4.60;96.30
11961;DHT22;6040;49.358;11.140;2024-01-11T13:00:37;4.30;96.30
11961;DHT22;6040;49.358;11.140;2024-01-11T13:03:04;4.10;96.50
11961;DHT22;6040;49.358;11.140;2024-01-11T13:05:31;4.10;96.70
11961;DHT22;6040;49.358;11.140;2024-01-11T13:08:01;4.10;96.60
11961;DHT22;6040;49.358;11.140;2024-01-11T13:10:29;3.90;96.70
11961;DHT22;6040;49.358;11.140;2024-01-11T13:12:58;4.00;96.70
11961;DHT22;6040;49.358;11.140;2024-01-11T13:15:26;4.30;96.60
11961;DHT22;6040;49.358;11.140;2024-01-11T13:17:55;4.10;96.50
11961;DHT22;6040;49.358;11.140;2024-01-11T13:20:22;4.30;95.90
11961;DHT22;6040;49.358;11.140;2024-01-11T13:23:00;4.20;96.00
11961;DHT22;6040;49.358;11.140;2024-01-11T13:25:37;4.00;96.20
11961;DHT22;6040;49.358;11.140;2024-01-11T13:28:04;4.00;96.20
11961;DHT22;6040;49.358;11.140;2024-01-11T13:30:31;4.00;96.80
11961;DHT22;6040;49.358;11.140;2024-01-11T13:33:00;4.00;96.10
11961;DHT22;6040;49.358;11.140;2024-01-11T13:35:27;3.80;96.30
11961;DHT22;6040;49.358;11.140;2024-01-11T13:37:54;3.30;96.70
11961;DHT22;6040;49.358;11.140;2024-01-11T13:40:21;3.30;97.20
11961;DHT22;6040;49.358;11.140;2024-01-11T13:42:48;3.30;97.00
11961;DHT22;6040;49.358;11.140;2024-01-11T13:45:15;3.30;97.30
11961;DHT22;6040;49.358;11.140;2024-01-11T13:47:42;3.20;97.50
11961;DHT22;6040;49.358;11.140;2024-01-11T13:50:10;4.10;97.90
11961;DHT22;6040;49.358;11.140;2024-01-11T13:52:38;2.70;97.90
11961;DHT22;6040;49.358;11.140;2024-01-11T13:55:05;3.90;98.70
11961;DHT22;6040;49.358;11.140;2024-01-11T13:57:32;2.50;98.50
11961;DHT22;6040;49.358;11.140;2024-01-11T13:59:59;2.40;98.90
11961;DHT22;6040;49.358;11.140;2024-01-11T14:02:26;2.70;99.00
11961;DHT22;6040;49.358;11.140;2024-01-11T14:04:53;2.20;99.00
11961;DHT22;6040;49.358;11.140;2024-01-11T14:07:21;2.00;99.20
11961;DHT22;6040;49.358;11.140;2024-01-11T14:09:48;2.10;99.30
11961;DHT22;6040;49.358;11.140;2024-01-11T14:12:15;1.90;99.20
11961;DHT22;6040;49.358;11.140;2024-01-11T14:14:42;1.80;99.50
11961;DHT22;6040;49.358;11.140;2024-01-11T14:17:08;2.10;99.90
11961;DHT22;6040;49.358;11.140;2024-01-11T14:19:35;1.60;99.70
11961;DHT22;6040;49.358;11.140;2024-01-11T14:22:02;3.00;99.90
11961;DHT22;6040;49.358;11.140;2024-01-11T14:24:30;1.50;99.90
11961;DHT22;6040;49.358;11.140;2024-01-11T14:26:57;1.40;99.90
11961;DHT22;6040;49.358;11.140;2024-01-11T14:29:24;1.40;99.90
11961;DHT22;6040;49.358;11.140;2024-01-11T14:31:51;2.70;99.90
11961;DHT22;6040;49.358;11.140;2024-01-11T14:34:18;1.40;99.90
11961;DHT22;6040;49.358;11.140;2024-01-11T14:36:45;1.10;99.90
11961;DHT22;6040;49.358;11.140;2024-01-11T14:39:12;1.10;99.90
11961;DHT22;6040;49.358;11.140;2024-01-11T14:41:41;1.00;99.90
11961;DHT22;6040;49.358;11.140;2024-01-11T14:44:08;1.60;99.90
11961;DHT22;6040;49.358;11.140;2024-01-11T14:46:36;2.90;99.90
11961;DHT22;6040;49.358;11.140;2024-01-11T14:49:03;0.80;99.90
11961;DHT22;6040;49.358;11.140;2024-01-11T14:51:33;0.80;99.90
11961;DHT22;6040;49.358;11.140;2024-01-11T14:54:02;0.70;99.90
11961;DHT22;6040;49.358;11.140;2024-01-11T14:56:30;0.70;99.90
11961;DHT22;6040;49.358;11.140;2024-01-11T14:58:58;0.60;99.90
11961;DHT22;6040;49.358;11.140;2024-01-11T15:01:25;0.60;99.90
11961;DHT22;6040;49.358;11.140;2024-01-11T15:03:51;0.50;99.90
11961;DHT22;6040;49.358;11.140;2024-01-11T15:06:18;0.50;99.90
11961;DHT22;6040;49.358;11.140;2024-01-11T15:08:45;0.40;99.90
11961;DHT22;6040;49.358;11.140;2024-01-11T15:11:12;1.60;99.90
11961;DHT22;6040;49.358;11.140;2024-01-11T15:13:39;0.30;99.90
11961;DHT22;6040;49.358;11.140;2024-01-11T15:16:07;0.20;99.90
11961;DHT22;6040;49.358;11.140;2024-01-11T15:18:34;0.10;99.90
11961;DHT22;6040;49.358;11.140;2024-01-11T15:21:01;0.00;99.90
11961;DHT22;6040;49.358;11.140;2024-01-11T15:23:28;-0.10;99.90
11961;DHT22;6040;49.358;11.140;2024-01-11T15:25:55;-0.20;99.90
11961;DHT22;6040;49.358;11.140;2024-01-11T15:28:22;-0.30;99.90
11961;DHT22;6040;49.358;11.140;2024-01-11T15:30:48;1.70;99.90
11961;DHT22;6040;49.358;11.140;2024-01-11T15:33:17;-0.50;99.90
11961;DHT22;6040;49.358;11.140;2024-01-11T15:35:43;-0.50;99.90
11961;DHT22;6040;49.358;11.140;2024-01-11T15:38:10;-0.60;99.90